Time;durP1;ratioP1;P1;durP2;ratioP2;P2;SDS_P1;SDS_P2;PMS_P1;PMS_P2;Temp;Humidity;BMP_temperature;BMP_pressure;BME280_temperature;BME280_humidity;BME280_pressure;Samples;Min_cycle;Max_cycle;Signal;HPM_P1;HPM_P2
2022/01/21 00:01:01;;;;;;;14.50;9.10;;;;;;;3.58;57.14;98072.03;3390762;29;20040;-72
2022/01/21 00:02:42;;;;;;;14.52;9.05;;;;;;;3.57;56.94;98064.31;3390637;29;20400;-72
2022/01/21 00:04:23;;;;;;;14.55;8.88;;;;;;;3.57;57.12;98062.50;3390670;29;20503;-71
2022/01/21 00:06:07;;;;;;;16.30;9.00;;;;;;;3.56;57.07;98063.47;3390884;29;20044;-71
2022/01/21 00:07:48;;;;;;;16.77;9.60;;;;;;;3.57;57.19;98062.50;3390423;29;20419;-71
2022/01/21 00:09:29;;;;;;;17.02;9.65;;;;;;;3.58;57.30;98064.13;3390513;29;20044;-70
2022/01/21 00:11:11;;;;;;;19.83;10.93;;;;;;;3.56;57.07;98060.03;3390672;29;20083;-70
2022/01/21 00:12:53;;;;;;;17.77;9.60;;;;;;;3.52;57.11;98067.53;3389807;29;20040;-71
2022/01/21 00:14:34;;;;;;;15.48;9.32;;;;;;;3.48;57.06;98066.25;3390501;29;20047;-73
2022/01/21 00:16:17;;;;;;;18.35;10.43;;;;;;;3.46;57.14;98069.09;3376584;29;20484;-71
2022/01/21 00:17:58;;;;;;;15.15;9.45;;;;;;;3.46;57.10;98073.56;3387994;29;20074;-70
2022/01/21 00:19:43;;;;;;;19.27;9.88;;;;;;;3.46;57.04;98068.28;3390641;29;20047;-72
2022/01/21 00:31:21;;;;;;;16.60;9.32;;;;;;;3.35;56.73;98064.31;3390250;29;20496;-71
2022/01/21 00:33:02;;;;;;;19.33;10.68;;;;;;;3.34;56.76;98078.50;3375831;29;20131;-70
2022/01/21 00:34:43;;;;;;;18.30;10.35;;;;;;;3.31;56.78;98067.53;3374850;29;20041;-72
2022/01/21 00:36:23;;;;;;;16.77;9.82;;;;;;;3.30;56.83;98065.88;3350526;29;20041;-72
2022/01/21 00:38:04;;;;;;;17.20;9.65;;;;;;;3.31;56.99;98065.72;3371964;29;20045;-71
2022/01/21 00:39:51;;;;;;;17.80;9.10;;;;;;;3.35;57.24;98069.59;3363514;29;20041;-72
2022/01/21 00:41:37;;;;;;;15.57;9.98;;;;;;;3.40;57.15;98071.66;3375056;29;20132;-72
2022/01/21 00:43:28;;;;;;;15.10;8.50;;;;;;;3.42;57.17;98065.19;3377350;29;20087;-72
2022/01/21 00:45:15;;;;;;;;;;;;;;;3.52;56.94;98058.81;3377715;29;20037;-72
2022/01/21 00:46:56;;;;;;;16.25;8.88;;;;;;;3.42;56.85;98059.94;3363315;29;19924;-73
2022/01/21 00:48:36;;;;;;;18.60;10.30;;;;;;;3.40;56.66;98059.31;3360723;29;20053;-74
2022/01/21 00:50:17;;;;;;;20.42;9.93;;;;;;;3.40;56.94;98056.66;3374481;29;20048;-73
2022/01/21 00:51:58;;;;;;;16.70;9.48;;;;;;;3.37;56.88;98057.06;3377077;29;20112;-74
2022/01/21 00:53:39;;;;;;;19.25;9.52;;;;;;;3.36;56.83;98060.69;3377425;29;20412;-74
2022/01/21 00:55:19;;;;;;;16.90;9.07;;;;;;;3.37;57.00;98069.41;3377246;29;20051;-73
2022/01/21 00:57:00;;;;;;;16.23;8.98;;;;;;;3.34;57.13;98072.41;3377036;29;20080;-72
2022/01/21 00:58:41;;;;;;;18.08;9.85;;;;;;;3.30;57.02;98065.88;3377071;29;20049;-72
2022/01/21 01:00:21;;;;;;;16.98;9.85;;;;;;;3.27;56.90;98070.53;3377476;29;20056;-73
2022/01/21 01:02:03;;;;;;;19.83;10.52;;;;;;;3.25;57.05;98075.19;3363059;29;20555;-74
2022/01/21 01:03:44;;;;;;;18.45;10.15;;;;;;;3.25;57.02;98077.81;3374307;29;20173;-73
2022/01/21 01:05:24;;;;;;;14.48;9.48;;;;;;;3.25;56.90;98076.97;3375822;29;20117;-73
2022/01/21 01:07:05;;;;;;;22.90;9.93;;;;;;;3.24;57.22;98078.00;3362712;29;20045;-74
2022/01/21 01:08:48;;;;;;;18.50;10.02;;;;;;;3.27;57.32;98074.97;3374194;29;20135;-75
2022/01/21 01:12:57;;;;;;;12.90;7.82;;;;;;;3.34;57.13;98075.88;3368534;29;20147;-74
2022/01/21 01:20:36;;;;;;;17.50;10.45;;;;;;;3.44;57.14;98079.00;3376973;29;20044;-74
2022/01/21 01:22:19;;;;;;;13.43;8.55;;;;;;;3.39;57.07;98070.03;3363072;29;20140;-74
2022/01/21 01:27:35;;;;;;;;;;;;;;;3.52;57.01;98077.25;3361075;29;20061;-74
2022/01/21 01:28:02;;;;;;;16.85;9.68;;;;;;;3.50;56.72;98072.97;3376395;29;19930;-75
2022/01/21 01:29:43;;;;;;;16.95;9.85;;;;;;;3.50;56.84;98075.59;3363027;29;20173;-74
2022/01/21 01:31:23;;;;;;;14.73;8.48;;;;;;;3.50;57.19;98080.06;3374031;29;20071;-73
2022/01/21 01:33:08;;;;;;;16.98;9.40;;;;;;;3.49;57.12;98076.63;3377312;29;20463;-72
2022/01/21 01:34:49;;;;;;;19.38;9.73;;;;;;;3.50;57.19;98077.44;3375489;29;20040;-72
2022/01/21 01:36:30;;;;;;;18.70;10.52;;;;;;;3.52;57.25;98080.69;3388088;29;20134;-72
2022/01/21 01:40:11;;;;;;;17.55;10.13;;;;;;;3.55;57.21;98077.66;3389702;29;20040;-71
2022/01/21 01:42:40;;;;;;;19.80;10.32;;;;;;;3.58;57.29;98071.22;3389972;29;20074;-71
2022/01/21 01:49:53;;;;;;;18.13;9.05;;;;;;;3.59;57.05;98070.19;3389386;29;20048;-73
2022/01/21 01:51:34;;;;;;;15.18;9.25;;;;;;;3.54;57.12;98067.31;3389619;29;20044;-74
2022/01/21 01:53:16;;;;;;;16.42;9.57;;;;;;;3.54;57.14;98067.31;3389516;29;20107;-73
2022/01/21 01:54:57;;;;;;;15.05;8.80;;;;;;;3.55;57.15;98061.88;3375443;29;20413;-74
2022/01/21 01:56:41;;;;;;;17.42;9.55;;;;;;;3.54;57.13;98059.41;3386824;29;20044;-73
2022/01/21 01:58:22;;;;;;;14.80;10.63;;;;;;;3.53;57.14;98055.97;3375549;29;20052;-73
2022/01/21 02:00:05;;;;;;;17.30;9.98;;;;;;;3.52;57.16;98049.09;3386362;29;20645;-74
2022/01/21 02:02:15;;;;;;;17.13;9.70;;;;;;;3.54;56.98;98062.03;3389322;29;20096;-75
2022/01/21 02:03:55;;;;;;;16.92;9.15;;;;;;;3.45;56.82;98053.47;3389279;29;20058;-74
2022/01/21 02:05:36;;;;;;;15.68;9.57;;;;;;;3.44;56.84;98052.66;3389343;29;20092;-75
2022/01/21 02:07:18;;;;;;;20.02;11.43;;;;;;;3.44;56.86;98047.41;3375518;29;20049;-75
2022/01/21 02:09:00;;;;;;;17.58;9.95;;;;;;;3.43;57.01;98051.03;3386432;29;20048;-74
2022/01/21 02:10:41;;;;;;;18.10;9.55;;;;;;;3.43;56.96;98055.47;3362411;29;20041;-72
2022/01/21 02:12:21;;;;;;;18.17;10.48;;;;;;;3.40;57.02;98055.84;3370280;29;20037;-74
2022/01/21 02:14:07;;;;;;;16.52;8.40;;;;;;;3.38;56.94;98057.84;3386448;29;20500;-73
2022/01/21 02:22:04;;;;;;;15.57;9.27;;;;;;;3.36;56.82;98055.44;3388561;29;20083;-72
2022/01/21 02:23:45;;;;;;;14.45;9.95;;;;;;;3.36;56.79;98055.44;3375126;29;20051;-72
2022/01/21 02:25:26;;;;;;;14.38;8.98;;;;;;;3.37;56.98;98051.78;3372281;29;20473;-72
2022/01/21 02:27:07;;;;;;;13.50;8.40;;;;;;;3.34;56.87;98057.44;3372650;29;20050;-73
2022/01/21 02:28:47;;;;;;;17.83;9.60;;;;;;;3.32;56.73;98051.53;3386154;29;20420;-73
2022/01/21 02:30:28;;;;;;;15.15;8.63;;;;;;;3.30;56.76;98050.09;3387979;29;20600;-71
2022/01/21 02:32:12;;;;;;;15.38;9.15;;;;;;;3.26;56.88;98049.66;3375254;29;20564;-72
2022/01/21 02:33:53;;;;;;;13.15;8.30;;;;;;;3.27;56.97;98054.72;3372147;29;20060;-72
2022/01/21 02:35:34;;;;;;;14.32;8.23;;;;;;;3.25;56.99;98048.84;3372600;29;20072;-72
2022/01/21 02:37:17;;;;;;;15.68;8.95;;;;;;;3.23;56.95;98050.03;3386157;29;20111;-71
2022/01/21 02:38:58;;;;;;;18.42;10.13;;;;;;;3.22;56.97;98056.28;3374903;29;20048;-72
2022/01/21 02:40:38;;;;;;;16.98;8.85;;;;;;;3.23;56.92;98060.56;3372476;29;20044;-74
2022/01/21 02:42:19;;;;;;;13.60;8.45;;;;;;;3.25;57.07;98055.91;3385487;29;20159;-74
2022/01/21 02:44:00;;;;;;;14.98;9.27;;;;;;;3.26;57.12;98052.28;3374824;29;20048;-73
2022/01/21 02:45:45;;;;;;;14.88;9.13;;;;;;;3.24;57.13;98049.84;3372246;29;20052;-75
2022/01/21 02:47:29;;;;;;;15.38;8.77;;;;;;;3.19;56.88;98051.41;3385744;29;20067;-74
2022/01/21 02:49:11;;;;;;;14.18;9.20;;;;;;;3.14;56.62;98048.53;3361892;29;20609;-72
2022/01/21 02:50:52;;;;;;;14.75;8.75;;;;;;;3.09;56.70;98043.81;3369768;29;20113;-73
2022/01/21 02:52:41;;;;;;;16.27;9.25;;;;;;;3.09;56.93;98037.75;3372269;29;20041;-72
2022/01/21 02:54:22;;;;;;;19.35;9.88;;;;;;;3.05;56.91;98046.03;3373177;29;20128;-73
2022/01/21 02:56:03;;;;;;;16.45;9.43;;;;;;;3.03;56.78;98042.75;3386002;29;20139;-73
2022/01/21 02:57:44;;;;;;;17.70;10.07;;;;;;;3.00;56.74;98034.44;3374620;29;20043;-74
2022/01/21 02:59:25;;;;;;;16.40;9.93;;;;;;;2.95;56.94;98037.63;3385921;29;20044;-73
2022/01/21 03:01:07;;;;;;;14.47;9.07;;;;;;;2.92;56.87;98039.78;3362080;29;20060;-74
2022/01/21 03:02:48;;;;;;;17.77;10.25;;;;;;;2.91;56.82;98028.44;3383361;29;20737;-73
2022/01/21 03:04:40;;;;;;;15.27;8.68;;;;;;;2.91;56.85;98036.34;3374485;29;20041;-72
2022/01/21 03:06:22;;;;;;;15.75;8.85;;;;;;;2.89;56.87;98030.47;3387250;29;20412;-72
2022/01/21 03:08:04;;;;;;;16.17;10.27;;;;;;;2.87;56.97;98042.19;3361633;29;20051;-73
2022/01/21 03:09:45;;;;;;;15.20;8.77;;;;;;;2.85;56.95;98037.09;3369724;29;20070;-72
2022/01/21 03:11:27;;;;;;;13.18;8.73;;;;;;;2.81;57.03;98030.56;3385697;29;20071;-72
2022/01/21 03:13:08;;;;;;;15.95;9.85;;;;;;;2.78;57.05;98021.22;3388611;29;20063;-72
2022/01/21 03:14:49;;;;;;;14.55;9.60;;;;;;;2.73;57.30;98025.44;3388578;29;20412;-72
2022/01/21 03:16:30;;;;;;;18.23;9.82;;;;;;;2.72;57.03;98024.63;3374624;29;20144;-73
2022/01/21 03:18:11;;;;;;;17.00;9.35;;;;;;;2.69;57.05;98025.00;3386016;29;20044;-73
2022/01/21 03:19:51;;;;;;;17.23;10.45;;;;;;;2.69;57.09;98026.81;3388659;29;20397;-73
2022/01/21 03:21:32;;;;;;;15.30;9.27;;;;;;;2.66;57.04;98027.16;3388510;29;20044;-72
2022/01/21 03:23:18;;;;;;;14.15;9.27;;;;;;;2.63;57.28;98023.09;3374418;29;20040;-71
2022/01/21 03:24:59;;;;;;;14.95;9.32;;;;;;;2.60;57.01;98019.00;3386014;29;20036;-73
2022/01/21 03:26:40;;;;;;;17.05;10.50;;;;;;;2.60;57.18;98015.56;3374599;29;20036;-72
2022/01/21 03:28:20;;;;;;;16.35;9.60;;;;;;;2.60;57.30;98019.00;3372883;29;20547;-72
2022/01/21 03:30:12;;;;;;;17.40;9.85;;;;;;;2.59;57.29;98017.38;3374929;29;20480;-72
2022/01/21 03:32:03;;;;;;;14.82;8.45;;;;;;;2.60;57.06;98019.00;3373736;29;20100;-74
2022/01/21 03:33:49;;;;;;;16.60;9.60;;;;;;;2.62;57.34;98013.56;3372954;29;20056;-73
2022/01/21 03:35:30;;;;;;;15.50;10.18;;;;;;;2.62;57.20;98000.44;3377185;29;20052;-72
2022/01/21 03:37:11;;;;;;;17.30;9.67;;;;;;;2.64;57.29;97997.63;3388984;29;20047;-73
2022/01/21 03:38:54;;;;;;;13.88;8.70;;;;;;;2.65;57.18;98005.31;3377032;29;20304;-72
2022/01/21 03:40:35;;;;;;;17.98;9.95;;;;;;;2.66;57.13;98011.38;3375172;29;20059;-74
2022/01/21 03:42:16;;;;;;;17.23;9.40;;;;;;;2.64;57.00;98003.69;3374643;29;20040;-73
2022/01/21 03:43:57;;;;;;;17.23;10.38;;;;;;;2.61;57.20;98011.97;3374459;29;20073;-72
2022/01/21 03:45:39;;;;;;;19.85;10.80;;;;;;;2.57;57.01;98019.38;3374280;29;20626;-72
2022/01/21 03:47:19;;;;;;;17.92;10.98;;;;;;;2.54;57.15;98013.69;3374877;29;20036;-73
2022/01/21 03:49:03;;;;;;;19.55;10.95;;;;;;;2.49;57.29;98011.59;3374346;29;20048;-72
2022/01/21 03:50:44;;;;;;;19.73;10.32;;;;;;;2.47;57.12;98008.34;3374916;29;20542;-71
2022/01/21 03:52:25;;;;;;;18.08;10.35;;;;;;;2.48;57.21;98017.03;3374464;29;20068;-73
2022/01/21 03:54:06;;;;;;;18.58;10.57;;;;;;;2.47;56.99;98018.84;3374469;29;20092;-72
2022/01/21 03:55:47;;;;;;;18.75;11.73;;;;;;;2.48;57.21;98015.25;3374453;29;21192;-73
2022/01/21 03:57:27;;;;;;;21.75;11.00;;;;;;;2.48;57.03;98020.50;3374418;29;20524;-74
2022/01/21 03:59:08;;;;;;;19.45;11.38;;;;;;;2.48;56.95;98009.16;3377003;29;20081;-74
2022/01/21 04:00:51;;;;;;;18.85;11.60;;;;;;;2.43;56.89;98004.47;3374100;29;20421;-74
2022/01/21 04:02:33;;;;;;;17.70;10.52;;;;;;;2.42;56.92;98005.44;3374664;29;20131;-75
2022/01/21 04:04:14;;;;;;;21.80;12.13;;;;;;;2.40;56.80;98007.44;3374484;29;20044;-73
2022/01/21 04:05:55;;;;;;;17.48;11.60;;;;;;;2.40;57.02;98018.78;3373947;29;20045;-73
2022/01/21 04:07:37;;;;;;;;;;;;;;;2.55;56.82;98020.56;3374868;29;20045;-73
2022/01/21 04:09:18;;;;;;;19.30;10.27;;;;;;;2.50;56.87;98033.44;3373929;29;20009;-72
2022/01/21 04:10:59;;;;;;;23.98;10.80;;;;;;;2.47;56.64;98044.34;3373938;29;20103;-73
2022/01/21 04:12:40;;;;;;;20.00;10.95;;;;;;;2.42;56.93;98030.94;3374281;29;20495;-74
2022/01/21 04:14:23;;;;;;;17.98;11.13;;;;;;;2.38;56.89;98035.75;3374505;29;20413;-73
2022/01/21 04:16:04;;;;;;;21.45;11.15;;;;;;;2.35;56.79;98036.09;3374231;29;20184;-74
2022/01/21 04:17:47;;;;;;;24.77;13.20;;;;;;;2.31;57.01;98026.97;3374622;29;20052;-74
2022/01/21 04:19:28;;;;;;;22.52;12.70;;;;;;;2.27;57.12;98018.63;3360978;29;20056;-73
2022/01/21 04:21:11;;;;;;;19.63;11.27;;;;;;;2.27;57.20;98021.25;3371958;29;20044;-74
2022/01/21 04:22:53;;;;;;;21.65;11.98;;;;;;;2.27;57.07;98037.03;3374333;29;20048;-74
2022/01/21 04:24:36;;;;;;;44.53;14.88;;;;;;;2.24;56.94;98028.69;3374446;29;20550;-74
2022/01/21 04:26:17;;;;;;;25.20;11.65;;;;;;;2.22;56.67;98028.88;3360750;29;20045;-73
2022/01/21 04:27:58;;;;;;;21.88;12.88;;;;;;;2.22;56.92;98028.03;3371176;29;20579;-73
2022/01/21 04:29:39;;;;;;;21.50;13.00;;;;;;;2.19;56.93;98029.22;3376715;29;20093;-76
2022/01/21 04:31:22;;;;;;;28.05;13.10;;;;;;;2.16;56.85;98040.09;3361256;29;20478;-74
2022/01/21 04:33:05;;;;;;;26.17;13.43;;;;;;;2.13;57.01;98030.75;3374454;29;20048;-75
2022/01/21 04:34:46;;;;;;;23.95;13.60;;;;;;;2.12;57.10;98030.97;3374179;29;20044;-74
2022/01/21 04:36:27;;;;;;;23.48;13.48;;;;;;;2.14;56.84;98034.19;3373605;29;20419;-75
2022/01/21 04:38:11;;;;;;;22.05;12.73;;;;;;;2.15;57.09;98028.78;3373692;29;20043;-74
2022/01/21 04:39:56;;;;;;;21.52;12.75;;;;;;;2.15;57.11;98028.78;3374153;29;20166;-76
2022/01/21 04:47:26;;;;;;;30.27;14.70;;;;;;;2.10;56.92;98027.69;3375912;29;20070;-74
2022/01/21 04:49:07;;;;;;;30.60;14.25;;;;;;;2.11;56.75;98030.13;3373730;29;20500;-74
2022/01/21 04:53:04;;;;;;;27.20;15.65;;;;;;;2.04;56.78;98025.78;3337073;29;20045;-75
2022/01/21 04:54:53;;;;;;;28.08;15.13;;;;;;;2.00;56.72;98033.22;3336400;29;20057;-74
2022/01/21 04:56:35;;;;;;;28.13;14.93;;;;;;;1.96;56.72;98032.78;3337330;29;20084;-73
2022/01/21 04:58:16;;;;;;;27.98;16.17;;;;;;;1.92;56.77;98041.19;3337317;29;20046;-76
2022/01/21 05:00:05;;;;;;;25.15;15.50;;;;;;;1.90;56.92;98032.66;3324357;29;20670;-75
2022/01/21 05:01:46;;;;;;;27.33;15.60;;;;;;;1.91;57.11;98029.03;3334781;29;20138;-74
2022/01/21 05:03:26;;;;;;;25.67;13.88;;;;;;;1.92;56.89;98026.22;3324321;29;20507;-74
2022/01/21 05:05:09;;;;;;;29.38;14.52;;;;;;;1.95;57.00;98031.13;3321901;29;20065;-73
2022/01/21 05:06:51;;;;;;;;;;;;;;;2.06;57.02;98029.03;3322584;29;20372;-71
2022/01/21 05:08:42;;;;;;;;;;;;;;;2.07;56.74;98030.69;3334886;29;20388;-74
2022/01/21 05:10:27;;;;;;;27.77;14.20;;;;;;;2.00;56.84;98020.06;3324234;29;19924;-74
2022/01/21 05:12:09;;;;;;;30.88;14.52;;;;;;;1.99;56.81;98017.63;3322483;29;20080;-74
2022/01/21 05:13:58;;;;;;;26.83;15.02;;;;;;;1.96;56.80;98021.41;3334958;29;20042;-73
2022/01/21 05:17:24;;;;;;;31.42;15.82;;;;;;;1.99;57.08;98030.75;3326610;29;20046;-73
2022/01/21 05:19:13;;;;;;;27.13;15.10;;;;;;;1.97;57.18;98023.06;3334861;29;20054;-69
2022/01/21 05:21:23;;;;;;;32.22;16.17;;;;;;;1.96;57.02;98016.16;3343528;29;20073;-70
2022/01/21 05:23:22;;;;;;;26.83;14.40;;;;;;;1.94;56.87;98007.69;3311746;29;20055;-69
2022/01/21 05:25:04;;;;;;;29.98;16.60;;;;;;;1.94;57.12;98007.69;3319583;29;20046;-68
2022/01/21 05:26:52;;;;;;;29.17;15.55;;;;;;;1.95;56.82;98009.28;3327407;29;20050;-70
2022/01/21 05:28:34;;;;;;;32.80;15.95;;;;;;;1.95;57.07;98004.03;3388089;29;20574;-68
2022/01/21 05:30:35;;;;;;;28.50;16.05;;;;;;;1.96;56.95;98016.16;3375850;29;20043;-70
2022/01/21 05:32:27;;;;;;;;;;;;;;;2.04;56.92;98015.25;3374860;29;20048;-73
2022/01/21 05:34:11;;;;;;;28.90;14.43;;;;;;;1.96;57.03;98006.50;3378879;29;20408;-73
2022/01/21 05:35:54;;;;;;;23.80;13.63;;;;;;;2.04;56.95;98010.00;3386864;29;20076;-70
2022/01/21 05:37:53;;;;;;;27.20;15.60;;;;;;;2.13;57.36;98007.13;3402352;29;20051;-72
2022/01/21 05:40:09;;;;;;;26.45;14.27;;;;;;;2.27;57.67;98008.13;3388497;29;20040;-72
2022/01/21 05:42:08;;;;;;;26.42;13.35;;;;;;;2.39;57.51;98011.06;3394158;29;20046;-71
2022/01/21 05:44:13;;;;;;;26.05;14.13;;;;;;;2.55;57.89;98000.34;3389524;29;20044;-73
2022/01/21 05:48:14;;;;;;;25.73;12.73;;;;;;;2.97;59.61;97996.16;3375549;29;20508;-72
2022/01/21 05:50:13;;;;;;;28.88;14.25;;;;;;;3.16;59.32;97976.28;3389348;29;20575;-73
2022/01/21 05:52:17;;;;;;;22.63;12.80;;;;;;;3.36;59.18;97986.97;3376457;29;20044;-72
2022/01/21 05:54:23;;;;;;;23.70;12.73;;;;;;;3.56;59.11;97981.03;3363000;29;20045;-73
2022/01/21 05:56:24;;;;;;;34.53;13.65;;;;;;;3.70;59.13;97977.50;3388947;29;20436;-73
2022/01/21 05:58:17;;;;;;;28.65;14.40;;;;;;;3.75;58.30;97974.28;3388832;29;20052;-72
2022/01/21 05:59:59;;;;;;;24.60;13.02;;;;;;;3.81;58.10;97973.50;3375706;29;20059;-74
2022/01/21 06:01:42;;;;;;;28.05;14.18;;;;;;;3.90;58.59;97977.63;3382543;29;20040;-74
2022/01/21 06:03:23;;;;;;;31.60;14.75;;;;;;;4.01;58.35;97973.63;3375963;29;20052;-73
2022/01/21 06:05:06;;;;;;;27.27;13.98;;;;;;;4.07;57.68;97962.28;3360222;29;20121;-72
2022/01/21 06:06:49;;;;;;;30.70;15.63;;;;;;;4.10;57.52;97961.88;3371301;29;20519;-75
2022/01/21 06:08:30;;;;;;;28.30;15.10;;;;;;;4.12;57.24;97973.06;3380397;29;20111;-71
2022/01/21 06:10:16;;;;;;;35.60;15.68;;;;;;;4.12;57.37;97962.50;3386233;29;20113;-72
2022/01/21 06:11:58;;;;;;;25.05;13.18;;;;;;;4.13;57.66;97959.69;3389133;29;20421;-71
2022/01/21 06:13:40;;;;;;;27.42;16.30;;;;;;;4.16;57.56;97955.84;3389399;29;20040;-73
2022/01/21 06:15:21;;;;;;;30.23;14.32;;;;;;;4.18;57.27;97953.81;3385219;29;20108;-72
2022/01/21 06:17:03;;;;;;;28.63;14.40;;;;;;;4.18;56.98;97953.81;3394853;29;20036;-74
2022/01/21 06:18:44;;;;;;;31.55;16.63;;;;;;;4.16;56.63;97953.22;3394682;29;20108;-75
2022/01/21 06:20:25;;;;;;;26.88;16.08;;;;;;;4.14;56.19;97947.31;3398039;29;20516;-74
2022/01/21 06:22:08;;;;;;;29.45;15.23;;;;;;;4.14;56.00;97950.75;3400615;29;20115;-73
2022/01/21 06:23:49;;;;;;;25.83;14.48;;;;;;;4.20;56.12;97951.00;3391777;29;20530;-74
2022/01/21 06:25:31;;;;;;;25.98;14.27;;;;;;;4.27;55.78;97943.91;3394780;29;20044;-75
2022/01/21 06:27:13;;;;;;;30.52;15.68;;;;;;;4.31;55.56;97945.97;3393676;29;20155;-73
2022/01/21 06:28:54;;;;;;;27.75;14.35;;;;;;;4.36;55.53;97954.09;3388999;29;20044;-74
2022/01/21 06:30:35;;;;;;;31.00;15.30;;;;;;;4.45;55.45;97959.19;3378678;29;20047;-74
2022/01/21 06:32:15;;;;;;;29.60;16.35;;;;;;;4.57;55.89;97955.78;3384367;29;20043;-76
2022/01/21 06:33:57;;;;;;;26.75;15.80;;;;;;;4.65;55.18;97948.72;3382764;29;20474;-73
2022/01/21 06:35:37;;;;;;;36.58;19.05;;;;;;;4.65;54.75;97952.16;3378494;29;20056;-75
2022/01/21 06:37:18;;;;;;;33.50;17.00;;;;;;;4.61;54.44;97953.56;3383721;29;20420;-74
2022/01/21 06:38:59;;;;;;;33.85;15.80;;;;;;;4.55;54.46;97949.09;3378647;29;20036;-70
2022/01/21 06:40:39;;;;;;;29.25;15.05;;;;;;;4.49;54.65;97950.69;3383931;29;20046;-73
2022/01/21 06:42:24;;;;;;;42.70;14.75;;;;;;;4.45;55.31;97944.19;3382552;29;20472;-71
2022/01/21 06:44:05;;;;;;;33.78;15.43;;;;;;;4.48;55.90;97948.25;3384364;29;20039;-73
2022/01/21 06:45:46;;;;;;;29.10;15.77;;;;;;;4.46;56.25;97948.44;3385917;29;20036;-72
2022/01/21 06:47:28;;;;;;;30.80;16.00;;;;;;;4.49;56.96;97934.03;3386625;29;20039;-72
2022/01/21 06:49:09;;;;;;;24.77;14.65;;;;;;;4.53;57.80;97940.56;3387111;29;20056;-72
2022/01/21 06:50:50;;;;;;;30.95;16.40;;;;;;;4.58;57.50;97938.13;3388010;29;20068;-72
2022/01/21 06:52:31;;;;;;;35.58;16.60;;;;;;;4.63;57.37;97930.44;3388379;29;20044;-74
2022/01/21 15:39:15;;;;;;;13.52;7.43;;;;;;;3.96;48.13;97738.84;3982502;23;21625;-78
2022/01/21 15:40:57;;;;;;;15.65;7.97;;;;;;;3.84;48.13;97754.41;3375114;29;20084;-78
2022/01/21 15:42:41;;;;;;;17.50;8.50;;;;;;;3.78;48.39;97750.75;3375881;29;20096;-80
2022/01/21 15:44:22;;;;;;;10.65;6.97;;;;;;;3.75;48.46;97756.41;3374881;29;21100;-79
2022/01/21 15:46:03;;;;;;;15.23;7.50;;;;;;;3.74;48.70;97752.13;3376070;29;20079;-79
2022/01/21 15:47:44;;;;;;;12.73;7.78;;;;;;;3.76;49.17;97754.59;3376282;29;20421;-78
2022/01/21 15:49:28;;;;;;;13.75;7.95;;;;;;;3.76;49.34;97754.59;3369824;29;20037;-80
2022/01/21 15:51:10;;;;;;;13.80;7.95;;;;;;;3.78;49.66;97753.38;3363568;29;20509;-79
2022/01/21 15:52:52;;;;;;;15.60;8.43;;;;;;;3.81;50.02;97763.50;3363534;29;20053;-79
2022/01/21 15:54:38;;;;;;;15.63;7.60;;;;;;;3.83;50.07;97752.78;3363189;29;20424;-75
2022/01/21 15:56:19;;;;;;;13.07;7.22;;;;;;;3.89;50.40;97750.16;3362940;29;20112;-78
2022/01/21 15:58:00;;;;;;;17.35;6.93;;;;;;;4.02;51.58;97753.81;3362395;29;20049;-76
2022/01/21 15:59:40;;;;;;;13.43;7.72;;;;;;;4.17;52.34;97757.09;3362740;29;20089;-79
2022/01/21 16:01:21;;;;;;;13.43;7.20;;;;;;;4.20;51.78;97754.06;3362738;29;20044;-78
2022/01/21 16:03:05;;;;;;;13.88;7.03;;;;;;;4.19;51.58;97749.81;3362892;29;20416;-76
2022/01/21 16:04:47;;;;;;;13.00;8.43;;;;;;;4.19;51.68;97739.25;3362572;29;20439;-77
2022/01/21 16:06:28;;;;;;;14.75;9.35;;;;;;;4.17;51.53;97736.00;3361465;29;20049;-76
2022/01/21 16:08:08;;;;;;;12.93;7.60;;;;;;;4.13;51.60;97742.69;3362509;29;20076;-76
2022/01/21 16:09:49;;;;;;;18.00;8.20;;;;;;;4.07;51.70;97746.94;3365910;29;20060;-77
2022/01/21 16:11:30;;;;;;;15.82;7.78;;;;;;;3.97;51.65;97743.88;3374227;29;20104;-76
2022/01/21 16:13:11;;;;;;;22.13;12.15;;;;;;;3.87;51.47;97746.94;3375433;29;20041;-78
2022/01/21 16:14:53;;;;;;;36.80;17.58;;;;;;;3.83;51.38;97756.22;3375864;29;20052;-75
2022/01/21 16:16:33;;;;;;;63.90;26.02;;;;;;;3.79;51.26;97757.63;3375661;29;20055;-76
2022/01/21 16:18:14;;;;;;;75.70;30.42;;;;;;;3.76;51.31;97744.84;3375467;29;20040;-76
2022/01/21 16:19:55;;;;;;;72.57;30.63;;;;;;;3.77;51.51;97754.41;3375648;29;20101;-76
2022/01/21 16:21:39;;;;;;;75.20;33.22;;;;;;;3.76;51.36;97749.31;3378273;29;20064;-78
2022/01/21 16:23:20;;;;;;;85.97;33.22;;;;;;;3.76;51.45;97744.84;3374545;29;20135;-77
2022/01/21 16:25:02;;;;;;;89.78;35.63;;;;;;;3.76;51.59;97744.84;3374974;29;20048;-77
2022/01/21 16:26:45;;;;;;;82.88;31.75;;;;;;;3.77;51.75;97738.59;3374687;29;20049;-77
2022/01/21 16:28:26;;;;;;;79.47;30.75;;;;;;;3.77;51.68;97746.50;3375063;29;20103;-75
2022/01/21 16:30:08;;;;;;;71.28;27.67;;;;;;;3.77;51.65;97741.22;3372371;29;20407;-79
2022/01/21 16:31:50;;;;;;;75.65;30.73;;;;;;;3.77;51.69;97746.50;3371667;29;20087;-78
2022/01/21 16:33:31;;;;;;;61.50;25.77;;;;;;;3.75;51.66;97737.97;3373618;29;20184;-77
2022/01/21 16:35:13;;;;;;;70.93;26.58;;;;;;;3.74;51.64;97746.88;3374621;29;20041;-79
2022/01/21 16:36:54;;;;;;;59.92;26.48;;;;;;;3.75;51.49;97742.44;3373148;29;20411;-78
2022/01/21 16:38:35;;;;;;;62.72;25.02;;;;;;;3.77;51.46;97749.13;3374354;29;20045;-78
2022/01/21 16:40:15;;;;;;;63.38;27.27;;;;;;;3.78;51.31;97742.84;3374983;29;20177;-79
2022/01/21 16:41:56;;;;;;;64.28;24.65;;;;;;;3.81;51.62;97744.25;3376865;29;20044;-78
2022/01/21 16:43:38;;;;;;;57.25;25.67;;;;;;;3.82;51.41;97749.34;3377495;29;20048;-77
2022/01/21 16:45:21;;;;;;;59.67;24.50;;;;;;;3.84;51.39;97747.31;3367832;29;20045;-76
2022/01/21 16:47:05;;;;;;;57.00;24.85;;;;;;;3.85;51.54;97738.41;3367677;29;20041;-77
2022/01/21 16:48:46;;;;;;;52.08;22.42;;;;;;;3.84;51.50;97735.97;3388144;29;20055;-77
2022/01/21 16:50:27;;;;;;;54.53;22.08;;;;;;;3.85;51.59;97741.03;3379999;29;20045;-77
2022/01/21 16:52:08;;;;;;;51.35;22.35;;;;;;;3.86;51.59;97741.84;3375297;29;20040;-76
2022/01/21 16:53:48;;;;;;;44.33;20.75;;;;;;;3.88;51.61;97745.91;3389245;29;20044;-78
2022/01/21 16:55:30;;;;;;;47.22;19.75;;;;;;;3.86;51.57;97740.00;3379725;29;20048;-76
2022/01/21 16:57:11;;;;;;;39.13;18.95;;;;;;;3.86;51.36;97747.91;3376563;29;20140;-76
2022/01/21 16:58:53;;;;;;;38.17;19.13;;;;;;;3.84;51.37;97731.50;3362470;29;20045;-77
2022/01/21 17:00:34;;;;;;;;;;;;;;;3.94;51.24;97737.19;3372946;29;20056;-77
2022/01/21 17:02:15;;;;;;;35.90;16.23;;;;;;;3.86;51.11;97740.00;3374998;29;19923;-76
2022/01/21 17:03:55;;;;;;;35.03;16.85;;;;;;;3.86;51.15;97734.75;3376904;29;20460;-78
2022/01/21 17:05:38;;;;;;;34.80;16.90;;;;;;;3.83;51.16;97729.06;3376610;29;20095;-79
2022/01/21 17:07:22;;;;;;;38.60;15.63;;;;;;;3.77;51.25;97730.69;3375607;29;20112;-78
2022/01/21 17:09:03;;;;;;;39.85;16.73;;;;;;;3.76;51.06;97739.59;3375523;29;20048;-79
2022/01/21 17:10:44;;;;;;;38.33;15.52;;;;;;;3.77;50.97;97730.69;3375131;29;20040;-77
2022/01/21 17:12:25;;;;;;;27.38;14.70;;;;;;;3.77;51.23;97735.13;3373338;29;20051;-75
2022/01/21 17:14:06;;;;;;;32.40;16.27;;;;;;;3.77;51.14;97730.69;3375592;29;20045;-77
2022/01/21 17:15:47;;;;;;;34.15;15.25;;;;;;;3.78;51.16;97742.84;3375345;29;20047;-75
2022/01/21 17:17:28;;;;;;;33.40;14.18;;;;;;;3.78;51.04;97740.22;3375784;29;20108;-75
2022/01/21 17:19:11;;;;;;;26.20;12.52;;;;;;;3.74;51.33;97735.53;3368575;29;20466;-76
2022/01/21 17:20:55;;;;;;;32.88;14.45;;;;;;;3.66;51.15;97741.78;3376934;29;20048;-76
2022/01/21 17:22:36;;;;;;;27.52;13.35;;;;;;;3.60;51.24;97739.97;3376663;29;20049;-76
2022/01/21 17:24:18;;;;;;;22.55;12.63;;;;;;;3.55;51.25;97742.38;3372226;29;20045;-76
2022/01/21 17:25:59;;;;;;;30.75;12.27;;;;;;;3.54;51.32;97746.00;3376213;29;20131;-76
2022/01/21 17:27:41;;;;;;;19.80;10.77;;;;;;;3.53;51.21;97739.13;3375432;29;20175;-76
2022/01/21 17:29:22;;;;;;;24.17;11.35;;;;;;;3.52;51.13;97745.41;3378218;29;20585;-75
2022/01/21 17:31:03;;;;;;;23.77;11.70;;;;;;;3.47;51.09;97746.78;3380298;29;20040;-74
2022/01/21 17:32:46;;;;;;;;;;;;;;;3.57;50.87;97743.00;3378240;29;20123;-76
2022/01/21 17:34:27;;;;;;;20.02;10.77;;;;;;;3.46;50.76;97745.19;3383093;29;19927;-75
2022/01/21 17:36:09;;;;;;;25.05;11.13;;;;;;;3.41;50.93;97747.59;3371130;29;20042;-74